Milford, MA (01757)

5:34 PM EDT on August 21, 2014 (GMT -0400)
Lucia and Clarridge Cir. | Change Station
CLOSE
Current Station
Personal Weather Station
Location: Milford, MA
Elevation: 357 ft
Nearby Weather Stations

Elev 357 ft 42.17 °N, 71.53 °W | Updated 17 seconds ago

Overcast
Overcast
73.7 °F
Feels Like 75 °F
N
1.0
Wind Variable Wind from NW
Gusts 1.0 mph

Today
High -- | Low -- °F
--% Chance of Precip.
Yesterday
High -- | Low -- °F
Precip. -- in
5:59 AM 7:37 PM
Waning Crescent, 12% visible
Pressure 30.05 in
Visibility 10.0 miles
Clouds Overcast 4500 ft
Heat Index 75 °F
Dew Point 64 °F
Humidity 72%
Rainfall 0.00 in
Snow Depth Not available.
UV 1 out of 12
Pollen 8.70 out of 12
Ozone Good
PM2.5 Good
Flu Activity Not available.
METAR KSFZ 212115Z 08004KT 10SM OVC045 23/16 A3005 RMK AO1

More Conditions Fewer Conditions

Pressure 30.05 in
Visibility 10.0 miles
Clouds Overcast 4500 ft
Heat Index 75 °F
Dew Point 64 °F
Humidity 72%
Rainfall 0.00 in
Snow Depth Not available.
UV 1 out of 12
Pollen 8.70 out of 12
Ozone Good
PM2.5 Good
Flu Activity Not available.
METAR KSFZ 212115Z 08004KT 10SM OVC045 23/16 A3005 RMK AO1

More Conditions Fewer Conditions

10-Day Weather Forecast

Almanac

Astronomy

Aug. 21, 2014 Rise Set
Actual Time 5:59 AM EDT 7:37 PM EDT
Civil Twilight 5:30 AM EDT 8:07 PM EDT
Nautical Twilight 4:54 AM EDT 8:43 PM EDT
Astronomical Twilight 4:15 AM EDT 9:21 PM EDT
Moon 2:25 AM EDT 5:05 PM EDT
Length of Visible Light 14h 36m
Length of Day
13h 37m
Tomorrow will be 2m 36s shorter.
Waning Crescent, 12% of the Moon is Illuminated
Today
Waning Crescent
Aug 25
New
Sep 2
First Quarter
Sep 8
Full
Sep 15
Last Quarter

Today's Extremes

State Highs State Lows

Community

WunderPhotos

Upload Photos

1,746,021 photos uploaded!

WunderBlogs® & News

Nearby

Air Quality

  Air Quality AQ Index Pollutant
Yesterday Good
OZONE
Yesterday Good
PM2.5
Current Good
OZONE
Current Good
PM2.5
Thursday Good
PM2.5
Thursday Good
OZONE
Friday Good
PM2.5
Friday Good
OZONE

Snow Depth

Station Depth Elevation
No new snow has been reported.

Earthquake Activity

City Distance Mag. Time & Date
No recent earthquake activity has been reported nearby.
Minimum magnitude displayed is 2.5.

Coastal Water Temperatures

Place Temperature
Newport, RI 70.0 °F
Quonset Point, RI 73.9 °F
Conimicut Light, RI 72.0 °F

Nearby Weather Stations